Time;durP1;ratioP1;P1;durP2;ratioP2;P2;SDS_P1;SDS_P2;PMS_P1;PMS_P2;Temp;Humidity;BMP_temperature;BMP_pressure;BME280_temperature;BME280_humidity;BME280_pressure;Samples;Min_cycle;Max_cycle;Signal;HPM_P1;HPM_P2
2021/06/26 00:00:26;;;;;;;7.55;5.87;;;;;;;20.01;76.24;100716.72;1596150;87;25847;-77
2021/06/26 00:02:55;;;;;;;6.92;6.17;;;;;;;20.02;76.39;100713.47;1602786;88;26802;-77
2021/06/26 00:05:22;;;;;;;10.03;5.95;;;;;;;20.00;76.38;100703.66;1646501;86;25746;-77
2021/06/26 00:07:49;;;;;;;7.90;5.70;;;;;;;20.01;76.47;100701.77;1646933;86;27548;-77
2021/06/26 00:10:16;;;;;;;7.22;5.92;;;;;;;19.97;76.47;100701.97;1646564;86;26223;-77
2021/06/26 00:12:43;;;;;;;7.58;6.17;;;;;;;19.91;76.46;100695.60;1602553;88;25770;-77
2021/06/26 00:15:13;;;;;;;7.58;6.33;;;;;;;19.85;76.54;100697.95;1646583;86;25759;-78
2021/06/26 00:17:40;;;;;;;8.50;6.75;;;;;;;19.79;76.71;100699.45;1615927;88;25776;-77
2021/06/26 00:20:08;;;;;;;7.75;5.58;;;;;;;19.73;76.80;100697.72;1591519;88;27492;-78
2021/06/26 00:22:35;;;;;;;9.38;6.33;;;;;;;19.68;77.01;100705.25;1557439;90;25882;-77
2021/06/26 00:25:02;;;;;;;8.60;6.42;;;;;;;19.63;77.09;100707.86;1557253;89;26623;-77
2021/06/26 00:27:31;;;;;;;7.03;6.33;;;;;;;19.60;77.15;100705.64;1590291;90;25817;-76
2021/06/26 00:29:58;;;;;;;8.63;6.17;;;;;;;19.56;77.31;100711.80;1577254;90;25538;-77
2021/06/26 00:32:25;;;;;;;7.65;6.75;;;;;;;19.54;77.44;100713.41;1557427;90;27772;-76
2021/06/26 00:34:52;;;;;;;7.90;6.72;;;;;;;19.56;77.43;100718.07;1557459;90;25856;-77
2021/06/26 00:37:19;;;;;;;7.47;6.08;;;;;;;19.57;77.46;100721.06;1590449;90;26540;-77
2021/06/26 00:39:46;;;;;;;7.42;6.37;;;;;;;19.56;77.45;100720.78;1577405;88;25872;-76
2021/06/26 00:42:13;;;;;;;7.03;6.15;;;;;;;19.58;77.56;100715.09;1557606;90;25986;-77
2021/06/26 00:44:41;;;;;;;8.55;6.62;;;;;;;19.61;77.79;100718.14;1557426;90;28365;-77
2021/06/26 00:47:12;;;;;;;7.17;6.47;;;;;;;19.63;77.74;100724.72;1590407;90;25916;-77
2021/06/26 00:49:40;;;;;;;10.50;7.12;;;;;;;19.65;77.64;100730.17;1577667;90;25905;-77
2021/06/26 00:52:08;;;;;;;8.38;6.45;;;;;;;19.67;77.62;100732.15;1557529;90;25821;-77
2021/06/26 00:54:35;;;;;;;7.92;7.08;;;;;;;19.71;77.74;100736.03;1575845;88;25904;-77
2021/06/26 00:57:04;;;;;;;10.18;6.65;;;;;;;19.75;77.68;100743.15;1616456;88;27567;-76
2021/06/26 00:59:32;;;;;;;8.75;6.87;;;;;;;19.77;77.65;100746.45;1577155;88;25883;-77
2021/06/26 01:01:59;;;;;;;13.10;7.05;;;;;;;19.78;77.65;100744.84;1579671;90;25827;-77
2021/06/26 01:04:26;;;;;;;10.03;7.55;;;;;;;19.80;77.58;100745.41;1577884;88;25859;-77
2021/06/26 01:06:54;;;;;;;10.53;7.72;;;;;;;19.81;77.47;100750.33;1616544;88;26108;-77
2021/06/26 01:09:22;;;;;;;8.90;7.37;;;;;;;19.82;77.54;100758.23;1597778;88;28278;-77
2021/06/26 01:11:49;;;;;;;8.63;7.65;;;;;;;19.83;77.50;100757.17;1597412;88;25977;-76
2021/06/26 01:14:16;;;;;;;9.40;6.65;;;;;;;19.84;77.50;100764.80;1594959;88;25815;-76
2021/06/26 01:16:43;;;;;;;9.43;7.33;;;;;;;19.85;77.56;100765.91;1616482;88;25903;-76
2021/06/26 01:19:11;;;;;;;7.85;7.03;;;;;;;19.89;77.50;100773.03;1598077;88;25843;-76
2021/06/26 01:21:38;;;;;;;8.80;6.42;;;;;;;19.90;77.54;100768.73;1587690;88;27535;-76
2021/06/26 01:24:06;;;;;;;9.80;6.47;;;;;;;19.88;77.44;100768.68;1609008;88;26560;-77
2021/06/26 01:26:35;;;;;;;7.85;6.53;;;;;;;19.85;77.44;100769.98;1627638;88;25833;-77
2021/06/26 01:29:09;;;;;;;8.30;6.72;;;;;;;19.85;77.63;100773.23;1608985;88;25911;-76
2021/06/26 01:31:36;;;;;;;10.85;6.37;;;;;;;19.79;77.54;100781.00;1629939;86;25879;-77
2021/06/26 01:34:03;;;;;;;8.40;6.67;;;;;;;19.71;77.58;100774.60;1592880;86;27566;-78
2021/06/26 01:36:30;;;;;;;6.55;5.90;;;;;;;19.62;77.69;100776.88;1577438;86;25820;-76
2021/06/26 01:38:59;;;;;;;18.27;8.00;;;;;;;19.57;77.83;100771.86;1649820;86;25836;-77
2021/06/26 01:41:31;;;;;;;10.25;7.28;;;;;;;19.56;78.15;100765.63;1627270;86;25993;-77
2021/06/26 01:43:58;;;;;;;9.25;6.30;;;;;;;19.55;78.15;100770.75;1562320;89;26154;-77
2021/06/26 01:46:25;;;;;;;7.95;6.67;;;;;;;19.53;78.20;100768.80;1584672;88;27563;-76
2021/06/26 01:48:52;;;;;;;9.75;7.08;;;;;;;19.54;78.26;100770.48;1627578;88;26010;-77
2021/06/26 01:51:19;;;;;;;7.85;5.87;;;;;;;19.53;78.30;100770.16;1638066;86;25965;-77
2021/06/26 01:53:46;;;;;;;9.60;6.25;;;;;;;19.53;78.42;100762.54;1597504;86;25871;-77
2021/06/26 01:56:13;;;;;;;8.05;6.78;;;;;;;19.45;78.49;100759.69;1594678;87;25378;-77
2021/06/26 01:58:40;;;;;;;8.50;6.83;;;;;;;19.40;78.47;100755.49;1641532;87;28299;-77
2021/06/26 02:01:12;;;;;;;6.90;6.25;;;;;;;19.43;78.63;100758.27;1622514;86;25961;-77
2021/06/26 02:03:36;;;;;;;10.32;6.97;;;;;;;19.45;78.66;100754.25;1589264;86;25835;-77
2021/06/26 02:06:03;;;;;;;8.48;6.70;;;;;;;19.48;78.70;100755.11;1615870;87;26061;-77
2021/06/26 02:08:32;;;;;;;12.30;6.67;;;;;;;19.49;78.63;100756.78;1641822;87;25875;-76
2021/06/26 02:10:59;;;;;;;6.90;6.20;;;;;;;19.47;78.60;100757.55;1641208;87;27528;-77
2021/06/26 02:13:26;;;;;;;6.90;6.30;;;;;;;19.45;78.64;100750.70;1602554;86;26028;-77
2021/06/26 02:15:53;;;;;;;10.80;6.40;;;;;;;19.44;78.71;100747.16;1574122;87;26577;-76
2021/06/26 02:18:20;;;;;;;6.90;6.10;;;;;;;19.47;78.66;100749.40;1641763;87;25898;-77
2021/06/26 02:20:47;;;;;;;7.47;5.92;;;;;;;19.48;78.64;100744.24;1623459;86;26057;-76
2021/06/26 02:23:14;;;;;;;7.35;6.22;;;;;;;19.49;78.63;100742.36;1597923;88;27533;-77
2021/06/26 02:25:41;;;;;;;7.80;6.25;;;;;;;19.49;78.52;100740.47;1591023;88;25969;-77
2021/06/26 02:28:08;;;;;;;12.13;5.85;;;;;;;19.49;78.51;100741.83;1615458;87;26069;-76
2021/06/26 02:30:35;;;;;;;9.55;6.08;;;;;;;19.48;78.52;100742.08;1615230;87;25843;-77
2021/06/26 02:33:04;;;;;;;7.40;5.87;;;;;;;19.44;78.54;100733.56;1580431;86;25899;-77
2021/06/26 02:35:31;;;;;;;6.58;5.97;;;;;;;19.40;78.54;100735.12;1553874;88;27401;-77
2021/06/26 02:37:58;;;;;;;6.70;6.03;;;;;;;19.40;78.57;100737.84;1612120;88;25964;-76
2021/06/26 02:40:26;;;;;;;6.35;5.72;;;;;;;19.42;78.55;100736.26;1612410;88;26580;-77
2021/06/26 02:42:53;;;;;;;12.03;6.47;;;;;;;19.39;78.50;100734.84;1582158;88;26014;-77
2021/06/26 02:45:20;;;;;;;11.63;6.10;;;;;;;19.38;78.52;100735.06;1562093;88;25821;-77
2021/06/26 02:47:47;;;;;;;8.90;5.55;;;;;;;19.35;78.51;100735.56;1576799;88;28342;-77
2021/06/26 02:50:14;;;;;;;8.45;5.65;;;;;;;19.31;78.52;100737.08;1612530;88;26627;-77
2021/06/26 02:52:41;;;;;;;6.22;5.62;;;;;;;19.27;78.55;100734.00;1587058;88;25868;-76
2021/06/26 02:55:10;;;;;;;10.32;5.33;;;;;;;19.23;78.66;100731.47;1569430;89;26120;-77
2021/06/26 02:57:37;;;;;;;5.70;4.97;;;;;;;19.20;78.62;100730.06;1569857;88;25905;-77
2021/06/26 03:00:07;;;;;;;7.33;5.30;;;;;;;19.15;78.58;100729.14;1600972;88;28155;-77
2021/06/26 03:02:34;;;;;;;7.35;5.10;;;;;;;19.13;78.62;100730.75;1578031;89;26057;-76
2021/06/26 03:05:01;;;;;;;8.05;5.12;;;;;;;19.13;78.65;100737.53;1579965;88;25924;-77
2021/06/26 03:07:28;;;;;;;7.85;5.67;;;;;;;19.15;78.72;100735.93;1569684;88;25661;-76
2021/06/26 03:09:55;;;;;;;5.78;4.80;;;;;;;19.15;78.62;100740.84;1599279;89;25774;-77
2021/06/26 03:12:22;;;;;;;8.00;4.92;;;;;;;19.15;78.54;100741.36;1588616;88;27552;-77
2021/06/26 03:14:49;;;;;;;7.80;4.83;;;;;;;19.18;78.66;100743.61;1559725;88;26002;-76
2021/06/26 03:17:16;;;;;;;6.85;5.08;;;;;;;19.22;78.80;100748.30;1559296;89;25919;-77
2021/06/26 03:19:43;;;;;;;7.40;5.03;;;;;;;19.29;78.75;100754.16;1610981;88;26265;-78
2021/06/26 03:22:10;;;;;;;5.65;4.55;;;;;;;19.36;78.80;100763.00;1592335;86;25896;-77
2021/06/26 03:24:37;;;;;;;7.75;4.42;;;;;;;19.41;78.61;100763.12;1592663;88;27479;-77
2021/06/26 03:27:05;;;;;;;5.47;4.83;;;;;;;19.44;78.51;100764.81;1612442;87;25912;-77
2021/06/26 03:29:32;;;;;;;9.05;4.28;;;;;;;19.52;78.47;100764.98;1623698;87;26329;-77
2021/06/26 03:31:59;;;;;;;5.45;4.20;;;;;;;19.58;78.28;100768.92;1611025;88;25954;-77
2021/06/26 03:34:26;;;;;;;4.60;4.20;;;;;;;19.66;78.13;100766.34;1591589;88;26280;-76
2021/06/26 03:36:53;;;;;;;7.12;4.87;;;;;;;19.69;77.76;100764.51;1612835;88;27595;-77
2021/06/26 03:39:20;;;;;;;5.42;4.33;;;;;;;19.72;77.69;100766.73;1614083;87;25901;-77
2021/06/26 03:41:47;;;;;;;5.75;4.25;;;;;;;19.73;77.53;100756.99;1612423;88;25911;-77
2021/06/26 03:44:14;;;;;;;4.70;4.17;;;;;;;19.70;77.30;100762.06;1571254;88;26263;-77
2021/06/26 03:46:41;;;;;;;5.08;4.30;;;;;;;19.68;77.38;100766.39;1611674;88;26651;-77
2021/06/26 03:49:10;;;;;;;10.15;4.35;;;;;;;19.68;77.25;100775.08;1599642;88;25987;-77
2021/06/26 03:51:39;;;;;;;4.72;3.58;;;;;;;19.69;76.99;100769.42;1578910;89;25869;-78
2021/06/26 03:54:06;;;;;;;6.95;4.30;;;;;;;19.65;76.83;100773.66;1557544;89;25976;-77
2021/06/26 03:56:33;;;;;;;5.28;4.20;;;;;;;19.62;76.95;100778.23;1568483;89;26106;-77
2021/06/26 03:59:01;;;;;;;6.30;4.00;;;;;;;19.62;77.10;100780.13;1608450;89;25626;-77
2021/06/26 04:01:28;;;;;;;5.05;3.67;;;;;;;19.61;77.01;100777.13;1581298;88;26916;-77
2021/06/26 04:03:55;;;;;;;7.10;4.20;;;;;;;19.61;77.11;100773.05;1570402;89;25812;-77
2021/06/26 04:06:22;;;;;;;5.22;4.03;;;;;;;19.62;77.03;100782.84;1568707;89;25685;-78
2021/06/26 04:08:49;;;;;;;8.83;4.42;;;;;;;19.67;77.21;100781.06;1600992;89;25779;-77
2021/06/26 04:11:16;;;;;;;5.22;3.65;;;;;;;19.74;77.42;100776.82;1591978;88;26492;-77
2021/06/26 04:13:43;;;;;;;4.85;4.00;;;;;;;19.84;77.46;100776.52;1550603;86;28339;-77
2021/06/26 04:16:10;;;;;;;6.00;4.35;;;;;;;19.91;76.96;100775.81;1547724;90;25834;-77
2021/06/26 04:18:37;;;;;;;5.30;3.87;;;;;;;19.93;76.82;100781.83;1603707;89;26482;-77
2021/06/26 04:21:05;;;;;;;8.45;4.05;;;;;;;19.98;76.81;100783.30;1548938;91;26798;-77
2021/06/26 04:23:32;;;;;;;8.03;4.17;;;;;;;20.04;76.79;100780.67;1568226;89;25848;-77
2021/06/26 04:25:59;;;;;;;4.58;4.15;;;;;;;20.06;76.31;100771.73;1634008;87;27486;-77
2021/06/26 04:28:26;;;;;;;7.80;3.87;;;;;;;20.08;76.50;100783.99;1610158;87;26514;-76
2021/06/26 04:30:54;;;;;;;7.87;4.03;;;;;;;20.11;76.08;100782.16;1570117;88;26613;-77
2021/06/26 04:33:21;;;;;;;4.67;3.90;;;;;;;20.12;75.72;100777.55;1580019;88;26591;-77
2021/06/26 04:35:48;;;;;;;5.90;3.85;;;;;;;20.14;75.78;100779.48;1588427;89;25761;-77
2021/06/26 04:38:21;;;;;;;6.40;3.92;;;;;;;20.15;75.73;100791.48;1580424;89;28314;-77
2021/06/26 04:40:44;;;;;;;4.87;3.98;;;;;;;20.16;75.93;100790.95;1583547;89;26103;-77
2021/06/26 04:43:11;;;;;;;5.22;3.80;;;;;;;20.20;76.15;100801.12;1567354;88;25891;-76
2021/06/26 04:45:38;;;;;;;5.75;3.95;;;;;;;20.24;76.13;100802.29;1560881;89;25835;-77
2021/06/26 04:48:05;;;;;;;4.20;3.80;;;;;;;20.27;75.50;100807.25;1610574;88;26453;-77
2021/06/26 04:50:33;;;;;;;5.85;3.90;;;;;;;20.30;75.65;100812.19;1578900;89;27517;-77
2021/06/26 04:53:00;;;;;;;6.53;3.90;;;;;;;20.33;75.42;100810.34;1550929;88;25738;-77
2021/06/26 04:55:27;;;;;;;5.50;3.87;;;;;;;20.36;75.26;100808.48;1590800;88;25996;-76
2021/06/26 04:57:54;;;;;;;4.83;4.22;;;;;;;20.35;74.96;100810.92;1599265;89;26431;-76
2021/06/26 05:00:22;;;;;;;4.42;4.03;;;;;;;20.42;75.49;100811.56;1589393;88;25879;-77
2021/06/26 05:02:49;;;;;;;5.95;4.00;;;;;;;20.48;75.22;100814.69;1562854;88;28174;-77
2021/06/26 05:05:16;;;;;;;6.35;3.72;;;;;;;20.53;74.79;100808.52;1568015;90;26350;-77
2021/06/26 05:07:43;;;;;;;5.95;4.10;;;;;;;20.59;74.97;100808.33;1604321;89;25967;-77
2021/06/26 05:10:11;;;;;;;8.13;3.72;;;;;;;20.66;74.84;100804.91;1567349;90;25814;-77
2021/06/26 05:12:45;;;;;;;7.22;4.60;;;;;;;20.77;74.72;100809.98;1583921;89;25871;-77
2021/06/26 05:15:14;;;;;;;7.17;3.70;;;;;;;20.85;74.66;100811.48;1588367;90;28249;-78
2021/06/26 05:17:41;;;;;;;7.40;3.67;;;;;;;20.97;74.38;100818.47;1583800;89;26020;-78
2021/06/26 05:20:14;;;;;;;5.83;4.42;;;;;;;20.96;73.77;100823.62;1567429;90;25939;-77
2021/06/26 05:22:39;;;;;;;5.37;3.92;;;;;;;20.90;73.23;100817.81;1535281;91;26828;-77
2021/06/26 05:25:08;;;;;;;5.87;3.55;;;;;;;20.85;73.75;100818.28;1560464;89;26420;-77
2021/06/26 05:27:35;;;;;;;7.45;4.25;;;;;;;20.85;74.29;100816.92;1587822;90;28169;-77
2021/06/26 05:30:02;;;;;;;4.50;3.70;;;;;;;20.88;74.36;100814.52;1555970;90;26031;-77
2021/06/26 05:32:30;;;;;;;6.62;4.17;;;;;;;20.92;74.66;100817.55;1525695;90;25378;-76
2021/06/26 05:34:57;;;;;;;4.58;3.85;;;;;;;20.96;74.72;100818.70;1543384;90;25891;-77
2021/06/26 05:37:24;;;;;;;5.60;4.22;;;;;;;20.97;74.67;100818.47;1565143;90;26019;-77
2021/06/26 05:39:51;;;;;;;6.75;3.98;;;;;;;20.94;74.25;100822.21;1564889;89;27634;-76
2021/06/26 05:42:18;;;;;;;7.17;4.08;;;;;;;20.88;74.30;100823.21;1544877;90;26067;-77
2021/06/26 05:44:45;;;;;;;5.83;4.25;;;;;;;20.78;74.47;100823.89;1543030;90;25878;-76
2021/06/26 05:47:12;;;;;;;6.72;3.92;;;;;;;20.74;74.78;100833.63;1586444;90;25834;-76
2021/06/26 05:49:39;;;;;;;4.67;3.80;;;;;;;20.70;75.01;100833.28;1564934;90;25921;-77
2021/06/26 05:52:06;;;;;;;5.85;4.40;;;;;;;20.70;75.39;100830.56;1564849;90;27485;-77
2021/06/26 05:54:34;;;;;;;5.53;4.58;;;;;;;20.71;75.16;100827.31;1545486;89;25786;-77
2021/06/26 05:57:02;;;;;;;8.95;4.45;;;;;;;20.71;75.44;100834.12;1598683;88;26452;-77
2021/06/26 05:59:29;;;;;;;4.78;4.28;;;;;;;20.74;75.56;100832.27;1587460;89;26619;-77
2021/06/26 06:01:56;;;;;;;8.25;4.78;;;;;;;20.75;75.15;100829.83;1580362;87;25885;-77
2021/06/26 06:04:23;;;;;;;5.42;4.35;;;;;;;20.70;75.15;100829.20;1598680;87;28612;-77
2021/06/26 06:06:50;;;;;;;6.10;4.05;;;;;;;20.73;74.76;100826.00;1599566;88;25888;-76
2021/06/26 06:09:17;;;;;;;6.42;4.50;;;;;;;20.75;74.79;100828.46;1587678;89;25858;-77
2021/06/26 06:11:45;;;;;;;5.50;4.20;;;;;;;20.78;74.89;100821.70;1569248;87;25829;-77
2021/06/26 06:14:12;;;;;;;8.00;5.28;;;;;;;20.85;75.41;100820.45;1599984;88;25872;-77
2021/06/26 06:16:39;;;;;;;4.25;3.72;;;;;;;20.94;75.77;100816.23;1549014;89;27582;-77
2021/06/26 06:19:06;;;;;;;7.45;5.10;;;;;;;21.00;74.92;100819.31;1608325;87;25742;-76
2021/06/26 06:21:33;;;;;;;7.87;4.25;;;;;;;20.99;74.58;100820.41;1593698;87;25355;-77
2021/06/26 06:24:00;;;;;;;4.87;4.25;;;;;;;21.01;74.38;100824.23;1590146;88;25996;-77
2021/06/26 06:26:27;;;;;;;6.22;4.85;;;;;;;21.02;74.42;100822.61;1552468;88;25791;-76
2021/06/26 06:28:54;;;;;;;5.85;4.55;;;;;;;21.07;74.52;100824.63;1604113;88;27651;-77
2021/06/26 06:31:22;;;;;;;4.97;4.10;;;;;;;21.11;73.98;100832.58;1619518;86;25342;-77
2021/06/26 06:33:49;;;;;;;6.17;4.60;;;;;;;21.09;73.97;100831.48;1608498;86;25845;-77
2021/06/26 06:36:16;;;;;;;7.22;4.87;;;;;;;21.15;74.06;100832.40;1589681;87;25782;-78
2021/06/26 06:38:43;;;;;;;6.60;4.60;;;;;;;21.20;73.67;100833.28;1615693;87;25632;-76
2021/06/26 06:41:10;;;;;;;6.45;4.75;;;;;;;21.24;73.53;100834.42;1617260;87;27587;-77
2021/06/26 06:43:37;;;;;;;6.40;3.87;;;;;;;21.29;72.98;100827.70;1600515;88;25785;-76
2021/06/26 06:46:05;;;;;;;7.55;4.72;;;;;;;21.28;73.16;100830.13;1549076;88;25343;-77
2021/06/26 06:48:33;;;;;;;5.70;4.45;;;;;;;21.31;73.25;100831.52;1573225;89;26575;-77
2021/06/26 06:51:00;;;;;;;6.15;4.67;;;;;;;21.35;73.15;100827.22;1626260;86;25380;-76
2021/06/26 06:53:27;;;;;;;5.83;4.22;;;;;;;21.40;72.70;100830.86;1566561;88;27588;-77
2021/06/26 06:55:58;;;;;;;6.83;3.85;;;;;;;21.45;72.98;100838.25;1590453;87;25830;-77
2021/06/26 06:58:23;;;;;;;4.50;4.08;;;;;;;21.48;72.50;100844.57;1624950;86;25801;-77
2021/06/26 07:00:50;;;;;;;6.10;4.90;;;;;;;21.42;72.53;100846.95;1621409;86;26494;-76
2021/06/26 07:03:17;;;;;;;6.50;4.70;;;;;;;21.44;73.68;100853.80;1577238;88;25976;-77
2021/06/26 07:05:44;;;;;;;7.90;4.92;;;;;;;21.53;73.22;100852.83;1574953;87;28269;-77
2021/06/26 07:08:11;;;;;;;6.70;4.90;;;;;;;21.57;73.31;100862.67;1630260;87;25741;-77
2021/06/26 07:10:38;;;;;;;7.10;4.95;;;;;;;21.58;72.87;100859.69;1630000;87;25869;-77
2021/06/26 07:13:05;;;;;;;7.12;4.95;;;;;;;21.62;73.15;100855.94;1583515;87;25918;-77
2021/06/26 07:15:32;;;;;;;6.05;4.92;;;;;;;21.65;72.73;100852.69;1567372;87;25861;-76
2021/06/26 07:17:59;;;;;;;7.60;4.97;;;;;;;21.64;72.81;100843.67;1621646;88;28426;-76
2021/06/26 07:20:26;;;;;;;7.05;5.22;;;;;;;21.68;73.08;100844.02;1597002;88;25758;-76
2021/06/26 07:22:55;;;;;;;8.15;5.12;;;;;;;21.70;72.91;100848.14;1603487;87;25839;-77
2021/06/26 07:25:23;;;;;;;7.65;5.22;;;;;;;21.76;72.71;100847.66;1583481;87;25857;-77
2021/06/26 07:27:50;;;;;;;8.50;5.58;;;;;;;21.82;72.80;100843.91;1633693;86;25735;-75
2021/06/26 07:30:18;;;;;;;7.55;5.50;;;;;;;21.92;73.04;100847.61;1642144;87;27624;-76
2021/06/26 07:32:46;;;;;;;5.55;4.58;;;;;;;22.01;72.70;100848.81;1591140;87;25864;-77
2021/06/26 07:35:15;;;;;;;6.65;4.65;;;;;;;22.04;72.40;100851.58;1577565;87;25911;-76
2021/06/26 07:37:43;;;;;;;10.58;5.65;;;;;;;22.01;73.61;100848.81;1642167;87;25754;-77
2021/06/26 07:40:13;;;;;;;6.35;4.67;;;;;;;22.01;71.99;100852.07;1631363;86;25794;-77
2021/06/26 07:42:41;;;;;;;7.75;5.10;;;;;;;21.94;72.12;100855.55;1594723;86;27496;-77
2021/06/26 07:45:09;;;;;;;7.05;4.65;;;;;;;21.91;72.43;100851.44;1590559;86;26018;-77
2021/06/26 07:47:36;;;;;;;5.85;5.08;;;;;;;21.94;72.63;100851.47;1635976;87;25882;-78
2021/06/26 07:50:06;;;;;;;7.42;4.65;;;;;;;21.99;72.15;100852.87;1641441;86;25798;-77
2021/06/26 07:52:33;;;;;;;7.30;5.00;;;;;;;22.04;71.06;100850.21;1597170;87;25888;-77
2021/06/26 07:55:00;;;;;;;6.22;4.62;;;;;;;22.03;71.17;100852.11;1603714;87;27623;-78
2021/06/26 07:57:28;;;;;;;5.78;4.40;;;;;;;22.10;70.85;100846.45;1647458;87;25937;-78
2021/06/26 07:59:55;;;;;;;5.90;4.62;;;;;;;22.23;71.64;100847.41;1624691;87;25875;-78
2021/06/26 08:02:22;;;;;;;5.75;4.17;;;;;;;22.33;70.74;100848.88;1613871;87;26044;-77
2021/06/26 08:04:49;;;;;;;6.72;4.95;;;;;;;22.45;70.75;100846.00;1584228;86;25896;-78
2021/06/26 08:07:16;;;;;;;4.50;4.10;;;;;;;22.52;70.55;100839.80;1634021;87;27573;-78
2021/06/26 08:09:43;;;;;;;6.00;4.90;;;;;;;22.63;69.92;100838.27;1634414;86;25919;-77
2021/06/26 08:12:15;;;;;;;7.33;4.40;;;;;;;22.76;70.64;100837.84;1578520;88;26108;-78
2021/06/26 08:14:42;;;;;;;4.70;4.10;;;;;;;22.93;70.40;100840.42;1605912;88;25851;-77
2021/06/26 08:17:11;;;;;;;5.28;4.35;;;;;;;22.95;68.77;100832.25;1609451;89;25380;-77
2021/06/26 08:19:39;;;;;;;5.20;4.17;;;;;;;22.97;68.50;100831.45;1621983;88;27645;-76
2021/06/26 08:22:06;;;;;;;5.70;4.20;;;;;;;22.96;67.71;100829.81;1586114;88;25932;-77
2021/06/26 08:24:34;;;;;;;5.62;3.80;;;;;;;22.91;67.65;100837.96;1578091;88;25709;-77
2021/06/26 08:27:02;;;;;;;6.37;3.98;;;;;;;22.90;68.19;100840.40;1620190;87;25917;-77
2021/06/26 08:29:31;;;;;;;6.42;3.95;;;;;;;22.92;67.48;100835.49;1631966;86;25807;-76
2021/06/26 08:31:58;;;;;;;4.47;3.65;;;;;;;22.90;66.92;100842.33;1569738;87;27647;-77
2021/06/26 08:34:25;;;;;;;6.58;3.87;;;;;;;22.99;66.07;100838.83;1588864;87;26049;-76
2021/06/26 08:36:52;;;;;;;4.97;3.12;;;;;;;23.09;65.27;100835.90;1643121;87;25858;-77
2021/06/26 08:39:20;;;;;;;5.25;3.60;;;;;;;23.14;65.16;100838.11;1633947;87;26977;-77
2021/06/26 08:41:48;;;;;;;7.97;3.90;;;;;;;23.20;64.18;100842.55;1592096;87;26767;-77
2021/06/26 08:44:18;;;;;;;4.33;3.60;;;;;;;23.26;65.56;100840.13;1603161;87;27531;-78
2021/06/26 08:46:52;;;;;;;5.65;4.12;;;;;;;23.32;63.21;100843.69;1625400;87;25848;-77
2021/06/26 08:49:19;;;;;;;6.22;3.95;;;;;;;23.30;63.39;100833.56;1641354;86;25928;-77
2021/06/26 08:51:46;;;;;;;6.00;4.35;;;;;;;23.37;64.13;100832.30;1583880;86;25863;-76
2021/06/26 08:54:16;;;;;;;7.83;4.20;;;;;;;23.40;63.18;100834.48;1590685;87;25861;-77
2021/06/26 08:56:46;;;;;;;8.77;3.80;;;;;;;23.30;63.60;100841.77;1633030;86;28237;-77
2021/06/26 08:59:16;;;;;;;3.98;3.60;;;;;;;23.20;62.53;100848.02;1621729;88;25846;-77
2021/06/26 09:01:44;;;;;;;4.70;3.55;;;;;;;23.07;62.75;100843.54;1573333;86;25912;-77
2021/06/26 09:04:16;;;;;;;4.30;3.10;;;;;;;23.00;61.11;100847.86;1554674;88;25929;-77
2021/06/26 09:06:56;;;;;;;4.83;3.47;;;;;;;22.88;61.78;100846.67;1625874;86;25832;-77
2021/06/26 09:09:35;;;;;;;4.15;3.70;;;;;;;22.81;61.56;100846.63;1591722;88;28220;-77
2021/06/26 09:12:10;;;;;;;5.15;3.92;;;;;;;22.74;62.05;100844.64;1590807;88;25831;-77
2021/06/26 09:14:39;;;;;;;6.12;3.20;;;;;;;22.71;62.63;100839.72;1572943;88;26513;-77
2021/06/26 09:17:07;;;;;;;3.67;2.92;;;;;;;22.69;62.32;100844.05;1621768;88;25981;-77
2021/06/26 09:19:36;;;;;;;5.75;3.15;;;;;;;22.69;61.94;100835.06;1621795;88;25910;-77
2021/06/26 09:22:10;;;;;;;6.28;3.42;;;;;;;22.72;62.08;100831.79;1575862;88;28850;-77
2021/06/26 09:24:43;;;;;;;4.53;3.20;;;;;;;22.77;62.26;100834.04;1570596;88;25847;-77
2021/06/26 09:27:13;;;;;;;6.78;3.20;;;;;;;22.80;60.09;100834.87;1615274;88;25842;-77
2021/06/26 09:29:53;;;;;;;4.12;3.00;;;;;;;22.85;60.70;100829.98;1597986;88;25918;-77
2021/06/26 09:32:29;;;;;;;3.15;2.85;;;;;;;22.96;61.75;100830.34;1591474;88;25840;-77
2021/06/26 09:34:58;;;;;;;4.00;2.67;;;;;;;23.19;59.83;100827.22;1550834;88;27519;-77
2021/06/26 09:37:29;;;;;;;4.97;2.77;;;;;;;23.33;59.00;100831.72;1615238;88;25868;-77
2021/06/26 09:40:00;;;;;;;;;;;;;;;23.43;59.47;100825.76;1617669;88;25828;-77
2021/06/26 09:42:39;;;;;;;3.80;2.62;;;;;;;23.44;57.15;100820.55;1618647;87;25802;-76
2021/06/26 09:45:10;;;;;;;3.92;2.22;;;;;;;23.43;57.54;100815.36;1591494;88;25563;-77
2021/06/26 09:47:44;;;;;;;4.45;2.90;;;;;;;23.51;58.30;100811.58;1598048;88;28147;-77
2021/06/26 09:50:23;;;;;;;3.08;2.47;;;;;;;23.64;59.87;100810.25;1621772;86;25852;-77
2021/06/26 09:53:00;;;;;;;2.97;2.73;;;;;;;23.78;59.42;100809.48;1570471;88;26605;-77
2021/06/26 09:55:35;;;;;;;4.92;3.22;;;;;;;23.89;58.99;100805.44;1618208;86;26589;-77
2021/06/26 09:58:19;;;;;;;3.77;2.67;;;;;;;23.96;57.88;100796.41;1572416;88;25904;-77
2021/06/26 10:00:45;;;;;;;3.35;2.83;;;;;;;23.97;57.72;100800.27;1611324;88;27661;-77
2021/06/26 10:03:18;;;;;;;3.33;3.02;;;;;;;23.85;55.92;100794.72;1566930;89;25937;-77
2021/06/26 10:05:46;;;;;;;4.37;2.98;;;;;;;23.73;55.89;100794.98;1571762;88;26571;-77
2021/06/26 10:08:20;;;;;;;4.08;3.15;;;;;;;23.72;58.04;100802.36;1592506;87;26601;-77
2021/06/26 10:10:45;;;;;;;3.92;2.67;;;;;;;23.68;55.76;100803.16;1611464;88;25963;-77
2021/06/26 10:13:13;;;;;;;6.33;3.67;;;;;;;23.59;56.97;100806.13;1591980;88;26602;-77
2021/06/26 10:15:41;;;;;;;5.50;3.20;;;;;;;23.66;57.57;100793.86;1587959;89;26480;-77
2021/06/26 10:18:10;;;;;;;4.47;3.00;;;;;;;23.82;57.25;100793.37;1584422;89;26583;-76
2021/06/26 10:20:38;;;;;;;2.90;2.60;;;;;;;23.97;56.01;100780.28;1588971;89;26189;-77
2021/06/26 10:23:06;;;;;;;4.58;3.05;;;;;;;24.10;55.41;100785.27;1533422;90;25944;-77
2021/06/26 10:25:39;;;;;;;3.40;2.75;;;;;;;24.15;54.73;100782.52;1584713;90;27943;-77
2021/06/26 10:28:10;;;;;;;5.17;3.30;;;;;;;24.21;55.09;100781.42;1555183;91;25416;-77
2021/06/26 10:30:37;;;;;;;4.90;2.90;;;;;;;24.37;56.06;100783.09;1585139;90;25348;-77
2021/06/26 10:33:11;;;;;;;3.47;2.92;;;;;;;24.55;55.35;100788.02;1534940;91;25832;-77
2021/06/26 10:35:43;;;;;;;4.33;3.70;;;;;;;24.60;56.32;100788.56;1545665;90;25919;-78
2021/06/26 10:38:12;;;;;;;7.83;3.87;;;;;;;24.68;56.68;100779.82;1535031;91;28112;-76
2021/06/26 10:40:50;;;;;;;5.70;3.70;;;;;;;24.76;55.26;100790.25;1584893;90;26394;-77
2021/06/26 10:43:24;;;;;;;3.80;3.40;;;;;;;24.78;56.54;100788.88;1534892;91;26117;-77
2021/06/26 10:46:11;;;;;;;4.12;3.65;;;;;;;24.76;56.08;100801.20;1564299;90;25803;-77
2021/06/26 10:48:42;;;;;;;4.20;3.52;;;;;;;24.60;55.17;100794.05;1584607;88;25996;-78
2021/06/26 10:51:10;;;;;;;4.33;3.40;;;;;;;24.37;56.36;100796.25;1574205;91;27538;-77
2021/06/26 10:53:40;;;;;;;4.25;3.25;;;;;;;24.28;56.32;100791.03;1545413;90;26010;-77
2021/06/26 10:56:16;;;;;;;5.72;3.37;;;;;;;24.28;56.21;100791.03;1557185;90;25820;-77
2021/06/26 10:58:45;;;;;;;4.37;3.30;;;;;;;24.36;55.90;100789.66;1563772;90;25883;-77
2021/06/26 11:01:22;;;;;;;3.77;3.40;;;;;;;24.47;55.78;100793.51;1586651;90;26660;-77
2021/06/26 11:04:05;;;;;;;3.33;3.02;;;;;;;24.61;56.44;100783.38;1565557;87;28102;-76
2021/06/26 11:06:33;;;;;;;3.70;3.02;;;;;;;24.76;54.76;100779.29;1613979;87;26139;-77
2021/06/26 11:09:10;;;;;;;5.22;3.65;;;;;;;24.87;54.50;100774.88;1570677;87;25888;-78
2021/06/26 11:11:41;;;;;;;4.42;3.77;;;;;;;25.02;57.09;100771.30;1621728;85;26577;-77
2021/06/26 11:14:16;;;;;;;2.92;2.62;;;;;;;25.07;54.06;100772.10;1619108;86;25865;-77
2021/06/26 11:16:52;;;;;;;4.92;3.50;;;;;;;24.90;52.82;100772.13;1627506;86;27503;-77
2021/06/26 11:19:24;;;;;;;3.87;3.47;;;;;;;24.70;51.18;100774.89;1611532;87;26436;-77
2021/06/26 11:21:54;;;;;;;5.40;3.17;;;;;;;24.72;52.00;100769.37;1591158;87;25856;-76
2021/06/26 11:24:43;;;;;;;4.40;3.58;;;;;;;24.84;53.02;100774.07;1575712;88;32572;-77
2021/06/26 11:27:21;;;;;;;3.40;3.10;;;;;;;24.97;53.75;100771.30;1595735;88;25785;-77
2021/06/26 11:29:50;;;;;;;3.67;3.17;;;;;;;25.05;53.13;100763.34;1614370;87;27464;-76